Woodward, IA (50276)

4:45 PM CDT on August 31, 2016 (GMT -0500)
SE side of Madrid, IA | | Change Station

Elev 1001 ft 41.87 °N, 93.81 °W | Updated 0 second ago

Clear
Clear
80.2 °F
Feels Like 81 °F
N
0.0
Wind Variable Wind from NNE
Gusts 8.0 mph

Today
High -- | Low -- °F
--% Chance of Precip.
Yesterday
High -- | Low -- °F
Precip. -- in
Pressure 30.14 in
Visibility 10.0 miles
Clouds Clear
Heat Index 81 °F
Dew Point 61 °F
Humidity 52%
Rainfall 0.00 in
Snow Depth Not available.
6:40 AM 7:49 PM
Waning Crescent, 0% visible
METAR KPRO 312135Z AUTO 01007KT 10SM CLR 27/14 A3014 RMK AO2 T02650142
Pressure 30.14 in
Visibility 10.0 miles
Clouds Clear
Heat Index 81 °F
Dew Point 61 °F
Humidity 52%
Rainfall 0.00 in
Snow Depth Not available.
6:40 AM 7:49 PM
Waning Crescent, 0% visible
METAR KPRO 312135Z AUTO 01007KT 10SM CLR 27/14 A3014 RMK AO2 T02650142

10-Day Weather Forecast

Almanac

Astronomy

Aug. 31, 2016 Rise Set
Actual Time
Civil Twilight
Nautical Twilight
Astronomical Twilight
Moon
Length of Visible Light
Length of Day
Tomorrow will be .
, % of the Moon is Illuminated

Today's Extremes

State Highs State Lows

Community

WunderPhotos

Upload Photos

1,936,189 photos uploaded!

WunderBlog® & News

Nearby

Air Quality

  Air Quality AQ Index Pollutant
Not available.

Snow Depth

Station Depth Elevation

Earthquake Activity

City Distance Mag. Time & Date
Minimum magnitude displayed is 2.5.

Coastal Water Temperatures

Place Temperature

Stations

Nearby Weather Stations

Station Location Temp. Windchill Dew Point Humidity Wind Precip. Elev Updated Type
                   

Watches & Warnings

There are currently no watches in effect.